Time;durP1;ratioP1;P1;durP2;ratioP2;P2;SDS_P1;SDS_P2;PMS_P1;PMS_P2;Temp;Humidity;BMP_temperature;BMP_pressure;BME280_temperature;BME280_humidity;BME280_pressure;Samples;Min_cycle;Max_cycle;Signal;HPM_P1;HPM_P2
2022/12/07 00:01:38;;;;;;;25.98;12.65;;;;;;;5.98;100.00;97078.50;5083552;28;20154;-61
2022/12/07 00:04:06;;;;;;;27.55;13.23;;;;;;;5.98;99.58;97081.25;5082020;28;20048;-61
2022/12/07 00:06:36;;;;;;;23.85;11.48;;;;;;;6.03;99.39;97086.53;5083573;28;20056;-60
2022/12/07 00:09:05;;;;;;;25.35;11.73;;;;;;;5.78;100.00;97079.34;5083700;28;20048;-61
2022/12/07 00:11:32;;;;;;;27.95;12.50;;;;;;;5.75;100.00;97085.50;5083329;28;20051;-61
2022/12/07 00:14:01;;;;;;;33.72;11.77;;;;;;;5.83;100.00;97087.41;5083727;28;20060;-61
2022/12/07 00:16:30;;;;;;;27.13;12.60;;;;;;;5.85;100.00;97079.59;5083421;28;20055;-61
2022/12/07 00:18:57;;;;;;;28.58;12.65;;;;;;;5.47;100.00;97040.53;5083946;28;20056;-61
2022/12/07 00:21:26;;;;;;;30.65;12.25;;;;;;;5.52;100.00;97065.03;5086887;28;20083;-61
2022/12/07 00:23:55;;;;;;;29.65;12.93;;;;;;;5.53;100.00;97072.94;5086986;28;20087;-61
2022/12/07 00:26:36;;;;;;;27.63;11.98;;;;;;;5.63;100.00;97079.94;5086663;28;20521;-61
2022/12/07 00:29:15;;;;;;;29.23;13.63;;;;;;;5.70;100.00;97078.28;5087113;28;20575;-62
2022/12/07 00:31:42;;;;;;;36.97;16.13;;;;;;;5.79;100.00;97075.44;5086933;28;20135;-61
2022/12/07 00:34:16;;;;;;;37.78;15.63;;;;;;;5.82;100.00;97063.78;5086885;28;20052;-61
2022/12/07 00:36:43;;;;;;;35.78;15.68;;;;;;;5.83;100.00;97070.91;5085416;28;20048;-61
2022/12/07 00:39:10;;;;;;;27.73;13.23;;;;;;;5.82;100.00;97069.28;5086977;28;20472;-61
2022/12/07 00:41:36;;;;;;;35.80;14.43;;;;;;;5.87;100.00;97066.34;5086928;28;20097;-61
2022/12/07 00:44:03;;;;;;;29.10;13.70;;;;;;;5.57;100.00;97029.09;5086950;28;20163;-61
2022/12/07 00:46:30;;;;;;;31.95;12.90;;;;;;;5.92;100.00;97074.38;5086318;28;20461;-60
2022/12/07 00:48:57;;;;;;;29.63;12.55;;;;;;;5.91;100.00;97067.28;5086325;28;20048;-61
2022/12/07 00:51:24;;;;;;;26.00;11.63;;;;;;;5.93;100.00;97070.47;5086676;28;20082;-61
2022/12/07 00:53:52;;;;;;;25.73;12.00;;;;;;;5.87;100.00;97060.84;5084992;28;20130;-61
2022/12/07 00:56:22;;;;;;;29.73;12.55;;;;;;;5.94;100.00;97061.09;5086467;28;20494;-61
2022/12/07 00:58:57;;;;;;;23.58;11.85;;;;;;;5.73;100.00;97038.31;5086172;28;20048;-61
2022/12/07 01:01:25;;;;;;;29.33;12.38;;;;;;;5.77;100.00;97061.25;5086295;28;20048;-60
2022/12/07 01:03:52;;;;;;;28.27;11.75;;;;;;;5.78;100.00;97057.34;5086321;28;20128;-61
2022/12/07 01:06:21;;;;;;;22.77;11.68;;;;;;;5.68;100.00;97061.31;5086284;28;20159;-61
2022/12/07 01:08:48;;;;;;;29.92;12.90;;;;;;;5.33;100.00;96990.56;5086382;28;20048;-61
2022/12/07 01:11:18;;;;;;;31.65;13.60;;;;;;;5.74;100.00;97056.41;5086032;28;20047;-61
2022/12/07 01:13:46;;;;;;;36.90;15.80;;;;;;;5.77;100.00;97061.25;5086452;28;20067;-61
2022/12/07 01:16:15;;;;;;;34.92;14.05;;;;;;;5.15;100.00;96964.41;5085704;28;20151;-61
2022/12/07 01:18:46;;;;;;;31.60;15.10;;;;;;;5.86;100.00;97048.25;5086152;28;20064;-62
2022/12/07 01:21:20;;;;;;;27.35;12.80;;;;;;;5.95;100.00;97048.94;5085828;28;20110;-61
2022/12/07 01:23:47;;;;;;;30.70;12.48;;;;;;;5.83;100.00;97046.19;5084807;28;20051;-62
2022/12/07 01:26:17;;;;;;;29.08;12.43;;;;;;;5.84;100.00;97047.78;5084146;28;20060;-61
2022/12/07 01:28:45;;;;;;;24.75;10.75;;;;;;;5.80;100.00;97055.06;5085845;28;20052;-60
2022/12/07 01:31:18;;;;;;;25.50;11.57;;;;;;;5.84;100.00;97034.84;5085482;28;20094;-62
2022/12/07 01:33:47;;;;;;;23.63;11.52;;;;;;;5.84;100.00;97040.34;5085639;28;20469;-62
2022/12/07 01:36:18;;;;;;;22.83;10.30;;;;;;;5.33;100.00;96938.38;5085288;28;20052;-61
2022/12/07 01:38:47;;;;;;;26.05;11.85;;;;;;;6.05;100.00;97034.75;5085777;28;20090;-62
2022/12/07 01:41:14;;;;;;;25.27;11.75;;;;;;;6.16;100.00;97030.44;5085238;28;20139;-62
2022/12/07 01:44:09;;;;;;;27.77;13.77;;;;;;;6.00;100.00;97011.06;5085688;28;20572;-61
2022/12/07 01:46:36;;;;;;;28.77;12.05;;;;;;;6.03;100.00;97020.56;5083999;28;20500;-62
2022/12/07 01:49:05;;;;;;;26.42;11.13;;;;;;;6.04;100.00;97022.16;5085687;28;20480;-61
2022/12/07 01:51:34;;;;;;;23.30;11.43;;;;;;;6.17;100.00;97015.53;5084917;28;20063;-61
2022/12/07 01:54:01;;;;;;;30.73;12.52;;;;;;;6.18;100.00;97011.63;5085560;28;20685;-61
2022/12/07 01:56:29;;;;;;;27.80;12.70;;;;;;;6.19;100.00;97007.75;5083689;28;20051;-61
2022/12/07 01:58:57;;;;;;;30.83;13.07;;;;;;;6.28;100.00;97010.38;5085702;28;20047;-61
2022/12/07 02:01:23;;;;;;;25.42;13.05;;;;;;;6.26;100.00;97015.44;5085538;27;20048;-61
2022/12/07 02:03:51;;;;;;;31.05;12.98;;;;;;;5.78;100.00;96936.44;5085215;28;20052;-61
2022/12/07 02:06:23;;;;;;;28.25;12.80;;;;;;;6.23;100.00;97011.41;5085108;28;20053;-61
2022/12/07 02:08:50;;;;;;;28.47;12.17;;;;;;;6.15;100.00;97006.81;5085111;28;20571;-60
2022/12/07 02:11:17;;;;;;;25.25;10.45;;;;;;;6.12;100.00;97013.00;5084667;28;20515;-61
2022/12/07 02:13:46;;;;;;;27.13;11.32;;;;;;;6.03;100.00;96993.06;5083661;28;20078;-60
2022/12/07 02:16:41;;;;;;;24.40;11.27;;;;;;;6.10;100.00;97004.31;5085068;28;20095;-61
2022/12/07 02:19:38;;;;;;;26.10;10.68;;;;;;;6.10;100.00;97015.31;5084955;28;20084;-61
2022/12/07 02:22:17;;;;;;;26.70;12.05;;;;;;;6.16;100.00;97008.44;5084777;28;20063;-60
2022/12/07 02:25:02;;;;;;;27.02;11.82;;;;;;;6.21;100.00;97004.66;5085021;28;20060;-61
2022/12/07 02:27:41;;;;;;;29.30;12.73;;;;;;;6.11;100.00;96997.66;5082965;28;20135;-61
2022/12/07 02:30:14;;;;;;;31.25;15.77;;;;;;;6.11;100.00;96978.41;5084962;28;20131;-61
2022/12/07 02:32:56;;;;;;;30.00;13.48;;;;;;;6.16;100.00;96997.44;4818142;28;5001830;-61
2022/12/07 02:35:34;;;;;;;24.60;11.05;;;;;;;6.23;100.00;97008.66;5024584;28;20595;-61
2022/12/07 02:38:12;;;;;;;29.15;11.60;;;;;;;6.22;100.00;97001.56;5024343;28;20103;-61
2022/12/07 02:41:02;;;;;;;21.80;11.50;;;;;;;6.33;100.00;96999.94;5024686;28;20136;-62
2022/12/07 02:43:53;;;;;;;25.20;10.57;;;;;;;6.21;100.00;96988.97;5022356;28;20095;-61
2022/12/07 02:46:31;;;;;;;27.08;11.48;;;;;;;6.07;100.00;96971.97;5024470;28;20081;-62
2022/12/07 02:49:01;;;;;;;28.85;12.65;;;;;;;6.30;100.00;96989.63;4842686;28;5001383;-62
2022/12/07 02:51:32;;;;;;;32.70;14.35;;;;;;;6.35;100.00;96986.66;5024546;28;20076;-62
2022/12/07 02:53:59;;;;;;;35.70;15.10;;;;;;;6.35;100.00;96992.16;5024502;28;20987;-62
2022/12/07 02:56:39;;;;;;;28.10;13.65;;;;;;;6.48;100.00;96993.75;5023981;28;20155;-61
2022/12/07 02:59:40;;;;;;;34.58;12.57;;;;;;;6.44;100.00;96992.84;5024025;28;20088;-62
2022/12/07 03:02:29;;;;;;;28.67;11.95;;;;;;;6.50;100.00;96991.44;5023970;28;20061;-62
2022/12/07 03:05:17;;;;;;;26.88;12.05;;;;;;;6.53;100.00;96990.75;5024354;28;20064;-62
2022/12/07 03:08:02;;;;;;;26.67;11.15;;;;;;;6.55;99.76;96993.16;5023548;28;20088;-63
2022/12/07 03:11:00;;;;;;;25.42;11.18;;;;;;;6.57;99.10;96997.19;5022688;28;20045;-62
2022/12/07 03:13:53;;;;;;;27.52;10.85;;;;;;;6.46;100.00;97001.56;5019677;28;20053;-62
2022/12/07 03:16:22;;;;;;;26.25;11.52;;;;;;;6.42;100.00;96984.13;5024195;28;20167;-61
2022/12/07 03:18:48;;;;;;;27.83;11.85;;;;;;;6.44;100.00;96987.34;5022741;28;20132;-62
2022/12/07 03:21:20;;;;;;;26.70;11.73;;;;;;;6.54;100.00;96981.38;5022608;28;20068;-61
2022/12/07 03:23:51;;;;;;;32.45;13.70;;;;;;;6.31;100.00;96938.97;5023863;28;20516;-61
2022/12/07 03:26:19;;;;;;;35.15;14.70;;;;;;;6.37;100.00;96945.06;5023497;28;20061;-61
2022/12/07 03:28:52;;;;;;;32.50;15.77;;;;;;;6.88;99.30;96991.84;5023903;28;20081;-62
2022/12/07 03:31:29;;;;;;;28.45;14.43;;;;;;;6.95;98.15;96992.09;5022447;28;20054;-61
2022/12/07 03:34:04;;;;;;;29.40;14.07;;;;;;;6.52;98.71;96914.88;5024147;28;20072;-62
2022/12/07 03:36:39;;;;;;;29.92;14.32;;;;;;;6.99;98.32;96992.97;5023525;28;20053;-62
2022/12/07 03:39:28;;;;;;;27.02;13.18;;;;;;;6.51;98.75;96926.22;5023587;28;20864;-63
2022/12/07 03:41:57;;;;;;;35.85;15.88;;;;;;;6.74;99.05;96977.66;5022351;28;20057;-63
2022/12/07 03:44:24;;;;;;;32.38;15.57;;;;;;;6.32;98.81;96918.59;5023873;28;20081;-63
2022/12/07 03:47:15;;;;;;;29.95;12.68;;;;;;;7.04;97.40;96978.97;5023602;28;20500;-62
2022/12/07 03:50:16;;;;;;;30.92;12.68;;;;;;;6.88;97.33;96975.34;5022418;28;20682;-62
2022/12/07 03:52:51;;;;;;;39.05;14.98;;;;;;;6.39;98.98;96896.78;5023421;28;20104;-60
2022/12/07 03:55:24;;;;;;;34.13;14.45;;;;;;;6.90;98.58;96975.81;5025964;28;20543;-60
2022/12/07 03:57:56;;;;;;;34.92;15.45;;;;;;;6.87;98.53;96976.50;5027548;28;20512;-62
2022/12/07 04:00:22;;;;;;;38.10;16.60;;;;;;;6.85;99.46;96978.78;5026201;28;20188;-61
2022/12/07 04:02:52;;;;;;;33.28;14.00;;;;;;;5.89;99.12;96833.16;5027738;28;20054;-61
2022/12/07 04:05:19;;;;;;;24.38;12.43;;;;;;;6.70;98.98;96974.00;5027923;28;20543;-61
2022/12/07 04:07:46;;;;;;;30.35;13.73;;;;;;;6.75;100.00;96982.00;5026163;28;20519;-61
2022/12/07 04:10:13;;;;;;;37.20;16.73;;;;;;;6.82;100.00;96976.75;5027365;28;20103;-62
2022/12/07 04:12:40;;;;;;;33.47;13.98;;;;;;;6.96;98.83;96971.66;5027183;28;20582;-61
2022/12/07 04:15:07;;;;;;;46.95;20.05;;;;;;;6.96;98.41;96971.66;5027146;28;20042;-61
2022/12/07 04:17:34;;;;;;;35.42;15.43;;;;;;;7.00;98.79;96967.03;5025965;28;20140;-62
2022/12/07 04:20:01;;;;;;;28.45;12.80;;;;;;;7.04;98.13;96973.47;5026134;28;20053;-59
2022/12/07 04:22:28;;;;;;;25.85;12.20;;;;;;;7.06;97.70;96960.16;5026894;28;20050;-62
2022/12/07 04:24:55;;;;;;;29.58;13.88;;;;;;;7.01;98.43;96968.66;5027117;28;20108;-62
2022/12/07 04:27:21;;;;;;;27.92;14.25;;;;;;;7.01;98.57;96957.63;5025229;28;20087;-61
2022/12/07 04:29:48;;;;;;;33.25;14.40;;;;;;;7.00;99.14;96960.75;5027111;28;20479;-62
2022/12/07 04:32:14;;;;;;;32.92;13.98;;;;;;;7.00;98.97;96956.03;5026867;28;20128;-61
2022/12/07 04:34:41;;;;;;;36.72;15.35;;;;;;;6.97;99.77;96962.22;5027060;28;20141;-61
2022/12/07 04:37:07;;;;;;;33.28;14.60;;;;;;;7.00;98.43;96961.53;5025084;28;20136;-63
2022/12/07 04:39:34;;;;;;;30.55;13.52;;;;;;;7.03;98.93;96963.59;5026940;28;20134;-62
2022/12/07 04:42:01;;;;;;;29.83;14.18;;;;;;;6.72;99.43;96916.66;5025305;28;20487;-62
2022/12/07 04:44:28;;;;;;;33.47;14.25;;;;;;;6.50;99.33;96903.41;5026826;28;20050;-61
2022/12/07 04:46:56;;;;;;;30.77;14.25;;;;;;;6.75;100.00;96959.22;5026619;28;20053;-61
2022/12/07 04:49:25;;;;;;;33.63;12.95;;;;;;;6.82;100.00;96959.41;5026345;28;20068;-62
2022/12/07 04:51:52;;;;;;;31.73;14.70;;;;;;;6.94;100.00;96962.94;5026792;28;20045;-61
2022/12/07 04:54:19;;;;;;;36.95;15.82;;;;;;;6.36;100.00;96880.97;5026361;28;20516;-61
2022/12/07 04:56:46;;;;;;;30.45;14.38;;;;;;;6.36;100.00;96902.16;5025964;28;20468;-61
2022/12/07 04:59:13;;;;;;;37.13;16.48;;;;;;;6.63;100.00;96926.19;5026311;28;20087;-61
2022/12/07 05:01:40;;;;;;;36.97;17.17;;;;;;;6.73;99.45;96923.78;5026327;28;20132;-61
2022/12/07 05:04:08;;;;;;;34.55;15.88;;;;;;;6.38;99.09;96856.69;5026270;28;20128;-62
2022/12/07 05:06:34;;;;;;;34.95;13.93;;;;;;;6.92;99.89;96957.00;5025452;28;20049;-62
2022/12/07 05:09:02;;;;;;;33.03;13.45;;;;;;;6.96;99.01;96960.63;5024080;28;20132;-62
2022/12/07 05:11:38;;;;;;;22.92;11.10;;;;;;;6.93;99.60;96961.34;5024193;28;20041;-61
2022/12/07 05:14:08;;;;;;;29.63;13.55;;;;;;;7.01;98.77;96946.63;5025941;28;20463;-61
2022/12/07 05:16:35;;;;;;;28.58;12.15;;;;;;;6.98;98.02;96955.59;5024462;28;20061;-61
2022/12/07 05:19:02;;;;;;;23.58;11.48;;;;;;;6.91;98.64;96952.63;5024703;28;20519;-61
2022/12/07 05:21:29;;;;;;;29.92;15.00;;;;;;;6.76;100.00;96956.13;5025771;28;20131;-62
2022/12/07 05:23:55;;;;;;;36.03;15.23;;;;;;;6.74;100.00;96958.41;5025931;28;20080;-61
2022/12/07 05:26:22;;;;;;;44.50;19.83;;;;;;;6.75;100.00;96970.22;5023840;28;20045;-61
2022/12/07 05:28:53;;;;;;;40.72;19.90;;;;;;;6.63;100.00;96957.28;5025694;28;20045;-61
2022/12/07 05:31:20;;;;;;;35.78;17.50;;;;;;;6.47;100.00;96953.63;5025310;28;20140;-62
2022/12/07 05:33:47;;;;;;;46.25;20.70;;;;;;;6.45;100.00;96964.16;5025798;28;20060;-60
2022/12/07 05:36:14;;;;;;;42.33;20.38;;;;;;;6.40;100.00;96961.69;5025325;28;20061;-62
2022/12/07 05:38:41;;;;;;;48.28;21.75;;;;;;;6.32;100.00;96968.09;5025423;28;20112;-62
2022/12/07 05:42:11;;;;;;;50.97;23.48;;;;;;;6.35;100.00;96967.41;5025408;28;20107;-61
2022/12/07 05:43:56;;;;;;;49.22;25.13;;;;;;;6.03;100.00;96921.56;5025864;28;20058;-61
2022/12/07 05:46:22;;;;;;;39.38;19.08;;;;;;;6.23;100.00;96964.63;5025153;28;20110;-61
2022/12/07 05:48:49;;;;;;;49.15;22.83;;;;;;;6.22;100.00;96974.06;5024926;28;20057;-61
2022/12/07 05:51:16;;;;;;;52.20;24.40;;;;;;;6.23;100.00;96974.88;5023932;28;20192;-61
2022/12/07 05:53:42;;;;;;;79.57;35.10;;;;;;;6.22;100.00;96974.06;5025045;28;20590;-62
2022/12/07 05:56:09;;;;;;;75.15;36.05;;;;;;;6.24;100.00;96971.75;5023744;28;20132;-62
2022/12/07 06:01:21;;;;;;;53.25;24.77;;;;;;;6.34;100.00;96976.78;5025158;28;20069;-61
2022/12/07 06:03:47;;;;;;;50.28;24.25;;;;;;;6.37;100.00;96976.09;5025236;28;20049;-61
2022/12/07 06:06:14;;;;;;;48.67;24.38;;;;;;;5.75;100.00;96898.63;5025345;28;20128;-61
2022/12/07 06:08:41;;;;;;;44.75;22.13;;;;;;;6.15;100.00;96962.81;5025204;28;20156;-62
2022/12/07 06:13:52;;;;;;;45.95;18.58;;;;;;;6.26;100.00;96985.94;5033352;28;20144;-60
2022/12/07 06:16:19;;;;;;;57.67;25.63;;;;;;;6.15;100.00;96966.38;5022762;28;20103;-62
2022/12/07 06:18:46;;;;;;;61.70;28.45;;;;;;;6.23;100.00;96986.66;5024807;28;20206;-62
2022/12/07 06:21:12;;;;;;;68.63;28.02;;;;;;;6.16;100.00;96983.69;5024438;28;20140;-61
2022/12/07 06:23:39;;;;;;;79.75;31.33;;;;;;;6.15;100.00;96982.06;5023655;28;20166;-62
2022/12/07 06:26:06;;;;;;;45.72;20.95;;;;;;;6.22;100.00;96979.56;5024978;28;20534;-62
2022/12/07 06:28:32;;;;;;;50.13;20.88;;;;;;;6.25;100.00;96973.38;5024342;28;20136;-61
2022/12/07 06:31:00;;;;;;;47.05;22.13;;;;;;;6.18;100.00;96977.84;5024817;28;20084;-61
2022/12/07 06:33:28;;;;;;;47.65;21.02;;;;;;;5.79;100.00;96899.53;5024493;28;20057;-61
2022/12/07 06:35:55;;;;;;;42.25;20.05;;;;;;;6.30;100.00;96980.56;5023041;28;20126;-61
2022/12/07 06:38:21;;;;;;;46.63;20.40;;;;;;;6.43;100.00;96977.50;5024025;28;20075;-61
2022/12/07 06:40:48;;;;;;;42.92;20.25;;;;;;;6.52;100.00;96982.84;5024601;28;20130;-63
2022/12/07 06:43:15;;;;;;;66.25;29.35;;;;;;;6.65;100.00;96979.75;5024366;28;20061;-61
2022/12/07 06:45:42;;;;;;;81.60;34.45;;;;;;;6.85;100.00;96978.78;5024544;28;20493;-63
2022/12/07 06:48:08;;;;;;;40.03;20.00;;;;;;;6.97;100.00;96988.97;5023878;28;20137;-62
2022/12/07 06:50:35;;;;;;;37.92;19.83;;;;;;;7.06;100.00;96995.94;5024360;28;20049;-62
2022/12/07 06:53:02;;;;;;;45.78;21.02;;;;;;;6.95;99.67;96958.22;5023775;28;20132;-61
2022/12/07 06:55:29;;;;;;;48.50;23.05;;;;;;;7.22;98.11;96991.28;5024223;28;20049;-61
2022/12/07 06:57:55;;;;;;;54.90;29.73;;;;;;;7.21;98.07;96973.16;5009114;28;20061;-62
2022/12/07 07:00:22;;;;;;;51.90;26.77;;;;;;;7.41;98.30;96993.41;5028353;28;20053;-61
2022/12/07 07:02:49;;;;;;;49.45;24.13;;;;;;;6.58;97.88;96847.44;5020935;28;20219;-57
2022/12/07 07:05:16;;;;;;;80.75;35.28;;;;;;;7.46;97.61;96974.66;5023497;28;20103;-61
2022/12/07 07:07:43;;;;;;;94.07;35.95;;;;;;;7.66;96.68;96995.72;5022581;28;20100;-56
2022/12/07 07:10:29;;;;;;;41.72;18.35;;;;;;;7.01;95.53;96880.53;5023338;28;20049;-57
2022/12/07 07:12:56;;;;;;;34.95;16.58;;;;;;;6.49;94.46;96769.75;5021940;28;20590;-55
2022/12/07 07:15:23;;;;;;;46.97;21.38;;;;;;;8.02;94.02;96999.38;5022935;28;20056;-64
2022/12/07 07:17:50;;;;;;;134.45;58.90;;;;;;;7.84;91.89;96956.78;5023292;28;20057;-66
2022/12/07 07:20:17;;;;;;;45.08;21.35;;;;;;;8.19;91.44;96993.53;5022104;28;20136;-63
2022/12/07 07:22:43;;;;;;;48.15;21.52;;;;;;;8.27;91.61;97003.59;5020899;28;20052;-63
2022/12/07 07:25:10;;;;;;;56.42;26.35;;;;;;;5.90;91.14;96614.88;5003589;28;20129;-57
2022/12/07 07:27:37;;;;;;;40.28;18.48;;;;;;;7.72;90.64;96889.53;5003296;28;20249;-56
2022/12/07 07:30:04;;;;;;;38.55;20.98;;;;;;;7.90;88.88;96922.25;5024554;28;20425;-56
2022/12/07 07:32:31;;;;;;;53.55;25.73;;;;;;;8.56;89.71;97005.91;5026964;28;20084;-60
2022/12/07 07:34:57;;;;;;;48.72;24.98;;;;;;;8.75;89.15;97014.25;5027484;28;20149;-53
2022/12/07 07:37:25;;;;;;;46.85;23.10;;;;;;;6.84;88.48;96693.66;5008651;28;20057;-61
2022/12/07 07:39:51;;;;;;;51.47;22.95;;;;;;;8.88;88.56;96953.00;5032483;28;20058;-59
2022/12/07 07:42:18;;;;;;;43.67;22.23;;;;;;;9.31;86.11;97004.44;5027083;28;20350;-59
2022/12/07 07:44:45;;;;;;;50.22;27.33;;;;;;;9.46;85.67;97006.34;5026960;28;20688;-59
2022/12/07 07:47:11;;;;;;;56.55;31.50;;;;;;;9.50;83.40;97000.91;5025937;28;20115;-61
2022/12/07 07:49:38;;;;;;;37.03;20.27;;;;;;;8.78;82.51;96911.34;5026212;28;20049;-65
2022/12/07 07:52:13;;;;;;;49.30;21.73;;;;;;;8.47;88.03;97005.31;5026772;28;20136;-55
2022/12/07 07:54:39;;;;;;;43.05;20.00;;;;;;;8.83;86.99;96982.88;5026091;28;20053;-56
2022/12/07 07:57:06;;;;;;;43.05;22.05;;;;;;;9.20;86.33;96995.13;5023977;28;20135;-59
2022/12/07 07:59:33;;;;;;;36.30;17.75;;;;;;;8.97;85.31;96999.78;5025402;28;20187;-57
2022/12/07 08:01:59;;;;;;;45.33;23.70;;;;;;;8.51;85.45;96959.25;5025613;28;20116;-62
2022/12/07 08:04:26;;;;;;;85.88;38.25;;;;;;;9.21;85.89;97002.28;5007168;28;20549;-61
2022/12/07 08:06:53;;;;;;;51.05;26.35;;;;;;;9.36;85.56;97006.94;5006635;28;20187;-61
2022/12/07 08:09:19;;;;;;;37.00;18.27;;;;;;;9.55;84.33;96998.63;5005888;28;20175;-59
2022/12/07 08:11:46;;;;;;;29.92;16.15;;;;;;;9.46;83.82;96981.47;5019122;28;20079;-64
2022/12/07 08:14:13;;;;;;;32.20;16.50;;;;;;;9.59;83.29;96985.69;5026736;28;20066;-58
2022/12/07 08:16:39;;;;;;;28.42;15.10;;;;;;;9.84;83.55;96986.97;5026011;28;20085;-57
2022/12/07 08:19:06;;;;;;;34.45;16.00;;;;;;;10.01;82.74;96994.78;5026451;28;20092;-58
2022/12/07 08:21:33;;;;;;;34.75;17.20;;;;;;;7.95;83.05;96649.75;5026700;28;20135;-57
2022/12/07 08:24:00;;;;;;;33.95;17.13;;;;;;;10.08;82.26;96950.69;5023771;28;20038;-59
2022/12/07 08:26:26;;;;;;;41.00;19.75;;;;;;;10.54;80.78;96993.75;5026015;28;20144;-60
2022/12/07 08:28:53;;;;;;;26.10;14.68;;;;;;;10.61;78.98;97007.72;5025453;28;20107;-61
2022/12/07 08:31:20;;;;;;;26.40;15.40;;;;;;;10.09;78.36;96941.19;5021456;28;20049;-63
2022/12/07 08:33:48;;;;;;;33.20;15.90;;;;;;;10.28;78.38;96948.63;5019830;28;20436;-60
2022/12/07 08:36:15;;;;;;;33.13;15.52;;;;;;;10.95;77.77;96994.00;5023859;28;20143;-62
2022/12/07 08:38:42;;;;;;;29.10;15.00;;;;;;;10.98;76.28;96993.25;5025395;28;20637;-61
2022/12/07 08:41:29;;;;;;;33.58;17.23;;;;;;;11.26;75.93;96988.09;5025339;28;20204;-57
2022/12/07 08:43:55;;;;;;;28.92;16.58;;;;;;;9.35;74.91;96678.38;5024079;28;20049;-60
2022/12/07 08:46:48;;;;;;;31.90;15.75;;;;;;;11.10;72.89;96926.47;5025030;28;20111;-60
2022/12/07 08:49:20;;;;;;;27.42;15.75;;;;;;;11.48;72.79;96989.97;5006222;28;20054;-60
2022/12/07 08:51:47;;;;;;;50.10;24.85;;;;;;;10.77;73.78;96949.41;5006666;28;20417;-57
2022/12/07 08:54:17;;;;;;;106.78;53.70;;;;;;;11.17;74.23;96990.34;5021275;28;20140;-61
2022/12/07 08:56:47;;;;;;;58.88;28.02;;;;;;;10.95;74.38;96897.00;5025235;28;20585;-60
2022/12/07 08:59:17;;;;;;;36.50;20.38;;;;;;;11.22;73.92;96920.72;5024853;28;20052;-64
2022/12/07 09:01:43;;;;;;;128.88;57.97;;;;;;;11.43;73.58;96937.63;5024996;28;20493;-62
2022/12/07 09:04:11;;;;;;;41.10;21.50;;;;;;;11.12;72.51;96894.47;5023754;28;20091;-64
2022/12/07 09:06:38;;;;;;;38.47;19.00;;;;;;;11.29;71.69;96912.47;5023543;28;20562;-58
2022/12/07 09:09:06;;;;;;;64.43;29.58;;;;;;;11.83;71.62;96965.44;5024095;28;20080;-62
2022/12/07 09:11:33;;;;;;;41.50;19.98;;;;;;;11.62;70.89;96909.66;5025669;28;20115;-61
2022/12/07 09:14:00;;;;;;;33.35;17.80;;;;;;;12.31;70.73;96961.56;5024958;28;20143;-63
2022/12/07 09:16:26;;;;;;;32.03;18.30;;;;;;;11.77;69.81;96822.66;5024451;28;20057;-60
2022/12/07 09:18:53;;;;;;;30.98;18.63;;;;;;;12.94;68.82;96956.50;5023670;28;20111;-64
2022/12/07 09:21:20;;;;;;;33.22;17.08;;;;;;;12.91;65.10;96932.25;5022365;28;20597;-57
2022/12/07 09:23:46;;;;;;;34.90;16.90;;;;;;;13.05;64.96;96932.34;5022951;28;20045;-62
2022/12/07 09:26:13;;;;;;;40.78;18.25;;;;;;;13.17;66.38;96920.06;5022642;28;20550;-63
2022/12/07 09:28:40;;;;;;;26.83;13.85;;;;;;;11.77;63.40;96720.81;5022181;28;20111;-62
2022/12/07 09:31:06;;;;;;;34.08;15.10;;;;;;;11.54;68.55;96944.88;5024099;28;20053;-60
2022/12/07 09:33:57;;;;;;;30.10;14.88;;;;;;;11.62;68.19;96940.19;5025054;28;20543;-61
2022/12/07 09:36:25;;;;;;;34.75;18.25;;;;;;;12.05;66.22;96947.81;5023373;28;20140;-59
2022/12/07 09:38:52;;;;;;;33.30;14.90;;;;;;;11.86;65.80;96898.06;5023383;28;20053;-59
2022/12/07 09:41:20;;;;;;;22.10;13.57;;;;;;;12.25;65.86;96938.06;5024296;28;20054;-59
2022/12/07 09:43:46;;;;;;;27.50;14.88;;;;;;;12.27;65.26;96932.94;5025212;28;20053;-60
2022/12/07 09:46:17;;;;;;;25.77;13.63;;;;;;;12.00;66.01;96881.53;5025174;28;20049;-59
2022/12/07 09:48:45;;;;;;;30.90;14.20;;;;;;;12.25;66.36;96935.31;5024905;28;20087;-58
2022/12/07 09:51:20;;;;;;;25.35;14.48;;;;;;;12.19;66.90;96932.09;5023817;28;20096;-59
2022/12/07 09:53:52;;;;;;;23.00;13.70;;;;;;;11.81;66.53;96868.69;5024454;28;20099;-59
2022/12/07 09:56:20;;;;;;;32.67;18.70;;;;;;;11.76;66.87;96868.25;5024213;28;20076;-59
2022/12/07 09:58:48;;;;;;;29.33;14.48;;;;;;;11.98;68.45;96928.34;5024659;28;20057;-61
2022/12/07 10:01:20;;;;;;;23.98;14.13;;;;;;;12.03;67.45;96916.84;5022931;28;20095;-60
2022/12/07 10:03:52;;;;;;;24.15;14.27;;;;;;;12.09;68.24;96909.78;5023743;28;20050;-60
2022/12/07 10:06:18;;;;;;;26.83;15.18;;;;;;;11.38;67.45;96782.66;5021658;28;20045;-58
2022/12/07 10:08:45;;;;;;;21.50;13.15;;;;;;;11.39;69.73;96909.03;5023456;28;20085;-60
2022/12/07 10:11:14;;;;;;;24.38;13.23;;;;;;;11.36;69.24;96876.50;5023474;28;20058;-60
2022/12/07 10:13:48;;;;;;;23.95;14.00;;;;;;;10.81;71.25;96899.59;5023419;28;20045;-59
2022/12/07 10:16:40;;;;;;;29.20;14.50;;;;;;;11.39;71.29;96904.28;5023892;28;20057;-58
2022/12/07 10:19:30;;;;;;;27.13;15.23;;;;;;;11.20;70.10;96803.84;5023502;28;20061;-59
2022/12/07 10:22:23;;;;;;;24.02;14.48;;;;;;;12.13;68.47;96899.50;5039318;28;20057;-58
2022/12/07 10:25:09;;;;;;;24.08;14.55;;;;;;;12.37;68.07;96898.91;5023678;28;20047;-57
2022/12/07 10:27:35;;;;;;;27.27;14.35;;;;;;;12.27;66.47;96865.47;5022302;28;20152;-58
2022/12/07 10:30:09;;;;;;;32.75;14.85;;;;;;;12.51;66.54;96893.47;5024045;28;20584;-60
2022/12/07 10:32:36;;;;;;;;;;;;;;;12.83;65.67;96888.91;5024914;28;20057;-58
2022/12/07 10:35:21;;;;;;;27.75;14.40;;;;;;;12.84;64.40;96879.38;5023881;28;19979;-61
2022/12/07 10:37:49;;;;;;;27.38;15.02;;;;;;;10.93;64.36;96564.03;5023640;28;20057;-60
2022/12/07 10:40:32;;;;;;;29.23;16.40;;;;;;;12.96;63.93;96862.34;5023670;28;20140;-57
2022/12/07 10:43:05;;;;;;;29.52;15.65;;;;;;;12.42;63.60;96768.00;5023977;28;20056;-61
2022/12/07 10:45:32;;;;;;;30.45;17.17;;;;;;;12.30;63.15;96753.66;5023129;28;20050;-58
2022/12/07 10:48:18;;;;;;;31.98;18.35;;;;;;;12.39;63.29;96718.78;5023982;28;20053;-61
2022/12/07 10:50:54;;;;;;;32.92;18.58;;;;;;;13.54;63.45;96862.19;5004140;28;20540;-60
2022/12/07 10:53:32;;;;;;;28.55;15.93;;;;;;;13.76;62.85;96857.47;5013778;28;20482;-58
2022/12/07 10:56:08;;;;;;;27.05;15.23;;;;;;;13.90;61.23;96857.47;5023605;28;20057;-58
2022/12/07 10:58:45;;;;;;;28.90;16.55;;;;;;;14.02;60.43;96849.53;5022124;28;20103;-58
2022/12/07 11:01:23;;;;;;;33.92;18.15;;;;;;;13.83;61.59;96849.13;5023112;28;20049;-59
2022/12/07 11:04:18;;;;;;;33.42;16.27;;;;;;;14.11;60.58;96849.16;5022859;28;20072;-60
2022/12/07 11:07:03;;;;;;;31.02;15.77;;;;;;;14.06;59.92;96846.75;5022654;28;20486;-62
2022/12/07 11:09:39;;;;;;;33.55;17.70;;;;;;;14.01;59.13;96841.56;5003652;28;20500;-61
2022/12/07 11:12:44;;;;;;;36.88;17.90;;;;;;;14.19;58.60;96836.81;5019825;28;20053;-59
2022/12/07 11:15:20;;;;;;;40.25;20.00;;;;;;;13.48;58.52;96703.16;5021915;28;20085;-60
2022/12/07 11:18:26;;;;;;;29.00;14.65;;;;;;;12.22;65.04;96813.88;5022909;28;20147;-58
2022/12/07 11:21:12;;;;;;;25.02;12.90;;;;;;;11.82;67.45;96822.31;5021373;28;20136;-66
2022/12/07 11:23:57;;;;;;;28.25;13.05;;;;;;;11.20;69.70;96823.25;5022975;28;20057;-66
2022/12/07 11:26:24;;;;;;;32.22;14.77;;;;;;;10.86;71.72;96824.44;5021949;28;20053;-57
2022/12/07 11:29:36;;;;;;;30.73;14.63;;;;;;;11.00;71.71;96821.84;5022538;28;20057;-70
2022/12/07 11:32:29;;;;;;;28.92;13.18;;;;;;;11.37;70.55;96823.44;5000066;28;20136;-61
2022/12/07 11:35:07;;;;;;;28.38;14.02;;;;;;;11.18;71.69;96817.28;5004357;28;20530;-60
2022/12/07 11:37:37;;;;;;;26.90;14.02;;;;;;;10.96;72.04;96821.00;5003901;28;20053;-60
2022/12/07 11:40:25;;;;;;;37.80;18.33;;;;;;;10.84;73.11;96813.75;5022811;28;20132;-60
2022/12/07 11:43:16;;;;;;;46.90;21.15;;;;;;;10.68;74.37;96788.22;5023015;28;20183;-65
2022/12/07 11:45:46;;;;;;;29.63;14.43;;;;;;;9.97;74.00;96711.72;5022383;28;20104;-55